createdAt,value
2023-05-05T00:00:54.930Z,96092.00
2023-05-05T00:01:55.001Z,96088.00
2023-05-05T00:02:55.075Z,96088.00
2023-05-05T00:03:54.960Z,96090.00
2023-05-05T00:04:54.956Z,96090.00
2023-05-05T00:05:54.936Z,96086.00
2023-05-05T00:06:54.999Z,96086.00
2023-05-05T00:07:54.918Z,96086.00
2023-05-05T00:08:54.892Z,96086.00
2023-05-05T00:09:54.877Z,96086.00
2023-05-05T00:10:55.879Z,96088.00
2023-05-05T00:11:55.941Z,96084.00
2023-05-05T00:12:54.941Z,96082.00
2023-05-05T00:13:55.128Z,96078.00
2023-05-05T00:14:55.058Z,96082.00
2023-05-05T00:15:54.874Z,96080.00
2023-05-05T00:16:55.911Z,96082.00
2023-05-05T00:17:55.987Z,96078.00
2023-05-05T00:18:55.007Z,96082.00
2023-05-05T00:19:54.996Z,96080.00
2023-05-05T00:20:54.930Z,96080.00
2023-05-05T00:21:54.981Z,96080.00
2023-05-05T00:22:55.010Z,96082.00
2023-05-05T00:23:55.985Z,96082.00
2023-05-05T00:24:55.003Z,96080.00
2023-05-05T00:25:54.958Z,96080.00
2023-05-05T00:26:54.946Z,96084.00
2023-05-05T00:27:55.011Z,96084.00
2023-05-05T00:28:54.924Z,96082.00
2023-05-05T00:29:54.931Z,96082.00
2023-05-05T00:30:56.103Z,96082.00
2023-05-05T00:31:54.958Z,96082.00
2023-05-05T00:32:54.996Z,96082.00
2023-05-05T00:33:56.065Z,96082.00
2023-05-05T00:34:55.977Z,96086.00
2023-05-05T00:35:56.040Z,96086.00
2023-05-05T00:36:55.068Z,96086.00
2023-05-05T00:37:55.125Z,96084.00
2023-05-05T00:38:55.137Z,96084.00
2023-05-05T00:39:56.087Z,96086.00
2023-05-05T00:40:55.109Z,96088.00
2023-05-05T00:41:56.019Z,96084.00
2023-05-05T00:42:56.114Z,96086.00
2023-05-05T00:43:55.013Z,96086.00
2023-05-05T00:44:55.119Z,96086.00
2023-05-05T00:45:55.112Z,96086.00
2023-05-05T00:46:55.027Z,96086.00
2023-05-05T00:47:55.080Z,96088.00
2023-05-05T00:48:55.067Z,96088.00
2023-05-05T00:49:56.022Z,96086.00
2023-05-05T00:50:55.084Z,96088.00
2023-05-05T00:51:55.033Z,96088.00
2023-05-05T00:52:56.048Z,96088.00
2023-05-05T00:53:55.048Z,96088.00
2023-05-05T00:54:56.142Z,96086.00
2023-05-05T00:55:55.087Z,96088.00
2023-05-05T00:56:56.128Z,96088.00
2023-05-05T00:57:55.132Z,96088.00
2023-05-05T00:58:55.069Z,96090.00
2023-05-05T00:59:56.038Z,96090.00
2023-05-05T01:00:56.094Z,96086.00
2023-05-05T01:01:56.152Z,96084.00
2023-05-05T01:02:55.191Z,96086.00
2023-05-05T01:03:55.151Z,96088.00
2023-05-05T01:04:56.120Z,96088.00
2023-05-05T01:05:55.155Z,96088.00
2023-05-05T01:06:55.113Z,96084.00
2023-05-05T01:07:55.061Z,96084.00
2023-05-05T01:08:55.197Z,96090.00
2023-05-05T01:10:04.475Z,96088.00
2023-05-05T01:10:56.045Z,96086.00
2023-05-05T01:11:55.078Z,96086.00
2023-05-05T01:12:55.088Z,96086.00
2023-05-05T01:13:55.007Z,96086.00
2023-05-05T01:14:55.084Z,96086.00
2023-05-05T01:15:55.066Z,96086.00
2023-05-05T01:16:54.970Z,96084.00
2023-05-05T01:17:56.022Z,96084.00
2023-05-05T01:18:54.981Z,96086.00
2023-05-05T01:19:55.036Z,96086.00
2023-05-05T01:20:54.942Z,96086.00
2023-05-05T01:21:56.038Z,96086.00
2023-05-05T01:22:55.928Z,96088.00
2023-05-05T01:23:56.024Z,96088.00
2023-05-05T01:24:55.005Z,96088.00
2023-05-05T01:25:54.997Z,96088.00
2023-05-05T01:26:54.974Z,96086.00
2023-05-05T01:27:56.071Z,96086.00
2023-05-05T01:28:55.976Z,96086.00
2023-05-05T01:29:55.024Z,96086.00
2023-05-05T01:30:54.961Z,96088.00
2023-05-05T01:31:54.930Z,96088.00
2023-05-05T01:32:55.054Z,96088.00
2023-05-05T01:33:54.937Z,96088.00
2023-05-05T01:34:55.928Z,96086.00
2023-05-05T01:35:55.952Z,96088.00
2023-05-05T01:36:55.920Z,96088.00
2023-05-05T01:37:55.835Z,96086.00
2023-05-05T01:38:54.902Z,96086.00
2023-05-05T01:39:54.914Z,96092.00
2023-05-05T01:40:54.820Z,96092.00
2023-05-05T01:41:55.897Z,96094.00
2023-05-05T01:42:54.823Z,96094.00
2023-05-05T01:43:54.885Z,96094.00
2023-05-05T01:44:54.894Z,96092.00
2023-05-05T01:45:54.966Z,96092.00
2023-05-05T01:46:55.892Z,96094.00
2023-05-05T01:47:55.001Z,96096.00
2023-05-05T01:48:55.927Z,96098.00
2023-05-05T01:49:55.092Z,96098.00
2023-05-05T01:50:54.865Z,96100.00
2023-05-05T01:51:55.940Z,96098.00
2023-05-05T01:52:54.876Z,96098.00
2023-05-05T01:53:54.937Z,96100.00
2023-05-05T01:54:55.019Z,96100.00
2023-05-05T01:55:54.912Z,96102.00
2023-05-05T01:56:55.899Z,96102.00
2023-05-05T01:57:55.925Z,96102.00
2023-05-05T01:58:54.942Z,96104.00
2023-05-05T01:59:56.084Z,96105.00
2023-05-05T02:00:54.953Z,96104.00
2023-05-05T02:01:55.923Z,96105.00
2023-05-05T02:02:56.148Z,96104.00
2023-05-05T02:03:56.026Z,96104.00
2023-05-05T02:04:54.953Z,96105.00
2023-05-05T02:05:55.982Z,96105.00
2023-05-05T02:06:55.970Z,96105.00
2023-05-05T02:07:55.967Z,96105.00
2023-05-05T02:08:55.049Z,96107.00
2023-05-05T02:09:55.083Z,96107.00
2023-05-05T02:10:55.067Z,96107.00
2023-05-05T02:11:55.073Z,96107.00
2023-05-05T02:12:55.061Z,96107.00
2023-05-05T02:13:55.029Z,96107.00
2023-05-05T02:14:55.101Z,96109.00
2023-05-05T02:15:55.013Z,96111.00
2023-05-05T02:16:55.067Z,96113.00
2023-05-05T02:17:55.059Z,96113.00
2023-05-05T02:18:55.968Z,96115.00
2023-05-05T02:19:55.099Z,96115.00
2023-05-05T02:20:54.985Z,96111.00
2023-05-05T02:21:55.004Z,96117.00
2023-05-05T02:22:56.084Z,96117.00
2023-05-05T02:23:55.044Z,96117.00
2023-05-05T02:24:54.996Z,96113.00
2023-05-05T02:25:55.072Z,96115.00
2023-05-05T02:26:55.047Z,96117.00
2023-05-05T02:27:54.972Z,96119.00
2023-05-05T02:28:56.090Z,96117.00
2023-05-05T02:29:55.019Z,96115.00
2023-05-05T02:30:55.051Z,96113.00
2023-05-05T02:31:55.980Z,96113.00
2023-05-05T02:32:55.018Z,96113.00
2023-05-05T02:33:54.969Z,96113.00
2023-05-05T02:34:55.991Z,96115.00
2023-05-05T02:35:55.966Z,96115.00
2023-05-05T02:36:56.045Z,96117.00
2023-05-05T02:37:56.048Z,96117.00
2023-05-05T02:38:54.975Z,96117.00
2023-05-05T02:39:56.008Z,96117.00
2023-05-05T02:40:54.972Z,96117.00
2023-05-05T02:41:55.086Z,96117.00
2023-05-05T02:42:55.174Z,96117.00
2023-05-05T02:43:54.976Z,96117.00
2023-05-05T02:44:55.107Z,96119.00
2023-05-05T02:45:54.999Z,96119.00
2023-05-05T02:46:56.230Z,96121.00
2023-05-05T02:47:56.158Z,96121.00
2023-05-05T02:48:55.087Z,96121.00
2023-05-05T02:49:55.070Z,96117.00
2023-05-05T02:50:55.079Z,96125.00
2023-05-05T02:51:55.104Z,96127.00
2023-05-05T02:52:55.028Z,96125.00
2023-05-05T02:53:56.054Z,96125.00
2023-05-05T02:54:55.132Z,96125.00
2023-05-05T02:55:55.130Z,96127.00
2023-05-05T02:56:56.112Z,96129.00
2023-05-05T02:57:55.145Z,96131.00
2023-05-05T02:58:55.114Z,96131.00
2023-05-05T02:59:55.121Z,96123.00
2023-05-05T03:00:55.143Z,96125.00
2023-05-05T03:01:55.165Z,96123.00
2023-05-05T03:02:55.280Z,96125.00
2023-05-05T03:03:55.103Z,96129.00
2023-05-05T03:04:55.057Z,96129.00
2023-05-05T03:05:56.078Z,96127.00
2023-05-05T03:06:56.060Z,96123.00
2023-05-05T03:07:55.163Z,96127.00
2023-05-05T03:08:55.079Z,96125.00
2023-05-05T03:09:56.143Z,96129.00
2023-05-05T03:10:55.187Z,96123.00
2023-05-05T03:11:55.233Z,96131.00
2023-05-05T03:12:56.160Z,96127.00
2023-05-05T03:13:55.152Z,96127.00
2023-05-05T03:14:55.098Z,96127.00
2023-05-05T03:15:56.223Z,96131.00
2023-05-05T03:16:55.160Z,96123.00
2023-05-05T03:17:55.199Z,96125.00
2023-05-05T03:18:55.173Z,96127.00
2023-05-05T03:19:56.180Z,96125.00
2023-05-05T03:20:56.240Z,96125.00
2023-05-05T03:21:55.132Z,96125.00
2023-05-05T03:22:55.170Z,96125.00
2023-05-05T03:23:55.193Z,96127.00
2023-05-05T03:24:56.197Z,96127.00
2023-05-05T03:25:55.217Z,96129.00
2023-05-05T03:26:55.189Z,96127.00
2023-05-05T03:27:55.102Z,96129.00
2023-05-05T03:28:55.181Z,96131.00
2023-05-05T03:29:55.195Z,96131.00
2023-05-05T03:30:56.113Z,96131.00
2023-05-05T03:31:56.208Z,96129.00
2023-05-05T03:32:56.161Z,96127.00
2023-05-05T03:33:55.234Z,96127.00
2023-05-05T03:34:55.220Z,96129.00
2023-05-05T03:35:55.146Z,96131.00
2023-05-05T03:36:56.137Z,96129.00
2023-05-05T03:37:55.146Z,96125.00
2023-05-05T03:38:55.285Z,96125.00
2023-05-05T03:39:56.275Z,96127.00
2023-05-05T03:40:55.252Z,96125.00
2023-05-05T03:41:55.283Z,96131.00
2023-05-05T03:42:55.172Z,96129.00
2023-05-05T03:43:56.505Z,96133.00
2023-05-05T03:44:56.310Z,96131.00
2023-05-05T03:45:56.214Z,96131.00
2023-05-05T03:46:55.221Z,96135.00
2023-05-05T03:47:55.281Z,96135.00
2023-05-05T03:48:55.211Z,96133.00
2023-05-05T03:49:56.221Z,96133.00
2023-05-05T03:50:56.230Z,96135.00
2023-05-05T03:51:55.246Z,96133.00
2023-05-05T03:52:55.258Z,96133.00
2023-05-05T03:53:55.254Z,96129.00
2023-05-05T03:54:56.311Z,96127.00
2023-05-05T03:55:55.286Z,96125.00
2023-05-05T03:56:56.299Z,96129.00
2023-05-05T03:57:55.286Z,96127.00
2023-05-05T03:58:56.283Z,96127.00
2023-05-05T03:59:56.307Z,96127.00
2023-05-05T04:00:55.327Z,96127.00
2023-05-05T04:01:55.378Z,96127.00
2023-05-05T04:02:55.483Z,96129.00
2023-05-05T04:03:55.614Z,96129.00
2023-05-05T04:04:56.431Z,96129.00
2023-05-05T04:05:55.371Z,96129.00
2023-05-05T04:06:56.397Z,96131.00
2023-05-05T04:07:56.442Z,96135.00
2023-05-05T04:08:56.423Z,96133.00
2023-05-05T04:09:56.482Z,96135.00
2023-05-05T04:10:55.443Z,96131.00
2023-05-05T04:11:56.447Z,96135.00
2023-05-05T04:12:55.603Z,96135.00
2023-05-05T04:13:55.521Z,96133.00
2023-05-05T04:14:56.519Z,96135.00
2023-05-05T04:15:56.604Z,96135.00
2023-05-05T04:16:55.563Z,96137.00
2023-05-05T04:17:55.747Z,96141.00
2023-05-05T04:18:55.588Z,96137.00
2023-05-05T04:19:55.584Z,96137.00
2023-05-05T04:20:55.593Z,96135.00
2023-05-05T04:21:56.661Z,96135.00
2023-05-05T04:22:55.688Z,96137.00
2023-05-05T04:23:55.592Z,96137.00
2023-05-05T04:24:56.664Z,96137.00
2023-05-05T04:25:55.759Z,96137.00
2023-05-05T04:26:55.697Z,96139.00
2023-05-05T04:27:56.682Z,96141.00
2023-05-05T04:28:56.726Z,96141.00
2023-05-05T04:29:55.704Z,96141.00
2023-05-05T04:30:56.840Z,96145.00
2023-05-05T04:31:55.797Z,96147.00
2023-05-05T04:32:56.824Z,96145.00
2023-05-05T04:33:55.842Z,96149.00
2023-05-05T04:34:55.888Z,96147.00
2023-05-05T04:35:55.933Z,96147.00
2023-05-05T04:36:55.916Z,96149.00
2023-05-05T04:37:55.805Z,96151.00
2023-05-05T04:38:56.962Z,96149.00
2023-05-05T04:39:55.887Z,96149.00
2023-05-05T04:40:55.957Z,96145.00
2023-05-05T04:41:55.927Z,96145.00
2023-05-05T04:42:55.938Z,96147.00
2023-05-05T04:43:55.895Z,96147.00
2023-05-05T04:44:55.926Z,96147.00
2023-05-05T04:45:55.995Z,96149.00
2023-05-05T04:46:56.034Z,96149.00
2023-05-05T04:47:56.060Z,96151.00
2023-05-05T04:48:55.988Z,96154.00
2023-05-05T04:49:57.111Z,96154.00
2023-05-05T04:50:55.969Z,96160.00
2023-05-05T04:51:56.068Z,96158.00
2023-05-05T04:52:56.059Z,96158.00
2023-05-05T04:53:57.047Z,96158.00
2023-05-05T04:54:57.039Z,96158.00
2023-05-05T04:55:57.091Z,96156.00
2023-05-05T04:56:57.027Z,96158.00
2023-05-05T04:57:57.064Z,96160.00
2023-05-05T04:58:57.022Z,96160.00
2023-05-05T04:59:56.090Z,96154.00
2023-05-05T05:00:56.093Z,96160.00
2023-05-05T05:01:56.135Z,96162.00
2023-05-05T05:02:57.102Z,96158.00
2023-05-05T05:03:56.174Z,96160.00
2023-05-05T05:04:56.106Z,96162.00
2023-05-05T05:05:56.155Z,96160.00
2023-05-05T05:06:58.961Z,96162.00
2023-05-05T05:07:56.116Z,96162.00
2023-05-05T05:08:56.191Z,96162.00
2023-05-05T05:09:56.068Z,96164.00
2023-05-05T05:10:57.090Z,96164.00
2023-05-05T05:11:57.126Z,96170.00
2023-05-05T05:12:56.128Z,96170.00
2023-05-05T05:13:56.056Z,96172.00
2023-05-05T05:14:57.067Z,96182.00
2023-05-05T05:15:57.207Z,96182.00
2023-05-05T05:16:56.089Z,96174.00
2023-05-05T05:17:56.055Z,96174.00
2023-05-05T05:18:56.019Z,96172.00
2023-05-05T05:19:57.041Z,96170.00
2023-05-05T05:20:56.002Z,96174.00
2023-05-05T05:21:57.090Z,96174.00
2023-05-05T05:22:55.950Z,96170.00
2023-05-05T05:23:57.024Z,96172.00
2023-05-05T05:24:55.955Z,96172.00
2023-05-05T05:25:56.029Z,96172.00
2023-05-05T05:26:55.953Z,96168.00
2023-05-05T05:28:08.848Z,96166.00
2023-05-05T05:28:57.008Z,96164.00
2023-05-05T05:29:56.964Z,96162.00
2023-05-05T05:30:55.988Z,96162.00
2023-05-05T05:31:58.253Z,96164.00
2023-05-05T05:32:56.918Z,96168.00
2023-05-05T05:33:57.127Z,96170.00
2023-05-05T05:34:55.947Z,96168.00
2023-05-05T05:35:56.958Z,96172.00
2023-05-05T05:36:55.959Z,96172.00
2023-05-05T05:37:56.083Z,96166.00
2023-05-05T05:38:56.618Z,96168.00
2023-05-05T05:39:56.050Z,96168.00
2023-05-05T05:40:56.388Z,96168.00
2023-05-05T05:41:57.307Z,96170.00
2023-05-05T05:42:56.549Z,96170.00
2023-05-05T05:43:57.329Z,96166.00
2023-05-05T05:44:56.416Z,96166.00
2023-05-05T05:45:56.270Z,96168.00
2023-05-05T05:46:56.205Z,96168.00
2023-05-05T05:47:57.242Z,96170.00
2023-05-05T05:48:56.681Z,96172.00
2023-05-05T05:49:57.489Z,96182.00
2023-05-05T05:50:57.447Z,96182.00
2023-05-05T05:51:57.338Z,96184.00
2023-05-05T05:52:57.611Z,96182.00
2023-05-05T05:53:58.891Z,96184.00
2023-05-05T05:54:57.061Z,96182.00
2023-05-05T05:55:56.993Z,96174.00
2023-05-05T08:43:54.893Z,96070.00
2023-05-05T08:44:54.639Z,96070.00
2023-05-05T08:45:54.608Z,96066.00
2023-05-05T08:46:54.595Z,96066.00
2023-05-05T08:47:54.654Z,96066.00
2023-05-05T08:48:54.610Z,96064.00
2023-05-05T08:49:54.563Z,96064.00
2023-05-05T08:50:55.021Z,96064.00
2023-05-05T08:51:54.579Z,96066.00
2023-05-05T08:52:54.543Z,96064.00
2023-05-05T08:53:55.682Z,96060.00
2023-05-05T08:54:54.572Z,96064.00
2023-05-05T08:55:54.596Z,96064.00
2023-05-05T08:56:55.545Z,96062.00
2023-05-05T08:57:54.488Z,96064.00
2023-05-05T08:58:55.768Z,96060.00
2023-05-05T08:59:54.618Z,96060.00
2023-05-05T09:00:54.572Z,96060.00
2023-05-05T09:01:54.597Z,96060.00
2023-05-05T09:02:54.643Z,96060.00
2023-05-05T09:03:54.505Z,96054.00
2023-05-05T09:04:54.452Z,96054.00
2023-05-05T09:05:55.479Z,96054.00
2023-05-05T09:06:55.459Z,96054.00
2023-05-05T09:07:54.526Z,96056.00
2023-05-05T09:08:57.505Z,96050.00
2023-05-05T09:09:55.398Z,96050.00
2023-05-05T09:10:54.473Z,96050.00
2023-05-05T09:11:55.442Z,96050.00
2023-05-05T09:12:55.469Z,96049.00
2023-05-05T09:13:55.363Z,96047.00
2023-05-05T09:14:57.241Z,96045.00
2023-05-05T09:15:54.477Z,96041.00
2023-05-05T09:16:54.425Z,96045.00
2023-05-05T09:17:54.404Z,96043.00
2023-05-05T09:18:55.368Z,96039.00
2023-05-05T09:19:54.385Z,96037.00
2023-05-05T09:20:54.396Z,96035.00
2023-05-05T09:21:55.314Z,96035.00
2023-05-05T09:22:54.297Z,96033.00
2023-05-05T09:23:54.566Z,96031.00
2023-05-05T09:24:54.337Z,96031.00
2023-05-05T09:25:54.325Z,96029.00
2023-05-05T09:26:54.308Z,96027.00
2023-05-05T09:27:55.279Z,96025.00
2023-05-05T09:28:54.292Z,96023.00
2023-05-05T09:29:54.251Z,96019.00
2023-05-05T09:30:55.295Z,96017.00
2023-05-05T09:31:54.375Z,96015.00
2023-05-05T09:32:55.410Z,96013.00
2023-05-05T09:33:55.227Z,96013.00
2023-05-05T09:34:54.236Z,96015.00
2023-05-05T09:35:55.226Z,96009.00
2023-05-05T09:36:55.232Z,96007.00
2023-05-05T09:37:54.255Z,96005.00
2023-05-05T09:38:54.260Z,96005.00
2023-05-05T09:39:54.191Z,96003.00
2023-05-05T09:40:55.236Z,96003.00
2023-05-05T09:41:54.245Z,96005.00
2023-05-05T09:42:54.205Z,96000.00
2023-05-05T09:43:54.224Z,96002.00
2023-05-05T09:44:54.160Z,95998.00
2023-05-05T09:45:54.226Z,96000.00
2023-05-05T09:46:54.156Z,96002.00
2023-05-05T09:47:59.620Z,96003.00
2023-05-05T09:48:55.293Z,96000.00
